sensor_id;sensor_type;location;lat;lon;timestamp;temperature;humidity
6964;DHT22;3522;50.856;7.278;2024-03-23T00:54:25;7.50;99.90
6964;DHT22;3522;50.856;7.278;2024-03-23T00:56:51;7.50;99.90
6964;DHT22;3522;50.856;7.278;2024-03-23T00:59:18;7.50;99.90
6964;DHT22;3522;50.856;7.278;2024-03-23T01:01:44;7.40;99.90
6964;DHT22;3522;50.856;7.278;2024-03-23T01:04:10;7.40;99.90
6964;DHT22;3522;50.856;7.278;2024-03-23T01:06:36;7.40;99.90
6964;DHT22;3522;50.856;7.278;2024-03-23T01:09:02;7.40;99.90
6964;DHT22;3522;50.856;7.278;2024-03-23T01:11:29;7.40;99.90
6964;DHT22;3522;50.856;7.278;2024-03-23T01:13:56;7.40;99.90
6964;DHT22;3522;50.856;7.278;2024-03-23T01:16:22;7.40;99.90
6964;DHT22;3522;50.856;7.278;2024-03-23T01:18:48;7.40;99.90
6964;DHT22;3522;50.856;7.278;2024-03-23T01:21:14;7.40;99.90
6964;DHT22;3522;50.856;7.278;2024-03-23T01:23:41;7.40;99.90
6964;DHT22;3522;50.856;7.278;2024-03-23T01:26:07;7.40;99.90
6964;DHT22;3522;50.856;7.278;2024-03-23T01:28:35;7.40;99.90
6964;DHT22;3522;50.856;7.278;2024-03-23T01:31:01;7.30;99.90
6964;DHT22;3522;50.856;7.278;2024-03-23T01:33:27;7.30;99.90
6964;DHT22;3522;50.856;7.278;2024-03-23T01:35:53;7.30;99.90
6964;DHT22;3522;50.856;7.278;2024-03-23T01:38:20;7.30;99.90
6964;DHT22;3522;50.856;7.278;2024-03-23T01:40:45;7.30;99.90
6964;DHT22;3522;50.856;7.278;2024-03-23T01:43:12;7.30;99.90
6964;DHT22;3522;50.856;7.278;2024-03-23T01:45:39;7.30;99.90
6964;DHT22;3522;50.856;7.278;2024-03-23T01:48:06;7.30;99.90
6964;DHT22;3522;50.856;7.278;2024-03-23T01:50:32;7.30;99.90
6964;DHT22;3522;50.856;7.278;2024-03-23T01:52:59;7.20;99.90
6964;DHT22;3522;50.856;7.278;2024-03-23T01:55:25;7.20;99.90
6964;DHT22;3522;50.856;7.278;2024-03-23T01:57:52;7.30;99.90
6964;DHT22;3522;50.856;7.278;2024-03-23T02:00:18;7.30;99.90
6964;DHT22;3522;50.856;7.278;2024-03-23T02:02:46;7.30;99.90
6964;DHT22;3522;50.856;7.278;2024-03-23T02:05:12;7.30;99.90
6964;DHT22;3522;50.856;7.278;2024-03-23T02:10:39;7.20;99.90
6964;DHT22;3522;50.856;7.278;2024-03-23T02:13:06;7.10;99.90
6964;DHT22;3522;50.856;7.278;2024-03-23T02:15:32;7.10;99.90
6964;DHT22;3522;50.856;7.278;2024-03-23T02:18:00;7.10;99.90
6964;DHT22;3522;50.856;7.278;2024-03-23T02:20:26;7.10;99.90
6964;DHT22;3522;50.856;7.278;2024-03-23T02:22:54;7.10;99.90
6964;DHT22;3522;50.856;7.278;2024-03-23T02:25:19;7.10;99.90
6964;DHT22;3522;50.856;7.278;2024-03-23T02:27:46;7.10;99.90
6964;DHT22;3522;50.856;7.278;2024-03-23T02:30:12;7.00;99.90
6964;DHT22;3522;50.856;7.278;2024-03-23T02:32:38;7.00;99.90
6964;DHT22;3522;50.856;7.278;2024-03-23T02:35:04;7.00;99.90
6964;DHT22;3522;50.856;7.278;2024-03-23T02:37:31;6.90;99.90
6964;DHT22;3522;50.856;7.278;2024-03-23T02:39:59;6.90;99.90
6964;DHT22;3522;50.856;7.278;2024-03-23T02:42:25;6.70;99.90
6964;DHT22;3522;50.856;7.278;2024-03-23T02:44:51;6.70;99.90
6964;DHT22;3522;50.856;7.278;2024-03-23T02:47:18;6.60;99.90
6964;DHT22;3522;50.856;7.278;2024-03-23T02:49:43;6.50;99.90
6964;DHT22;3522;50.856;7.278;2024-03-23T02:52:10;6.40;99.90
6964;DHT22;3522;50.856;7.278;2024-03-23T02:54:36;6.40;99.90
6964;DHT22;3522;50.856;7.278;2024-03-23T02:57:04;6.30;99.90
6964;DHT22;3522;50.856;7.278;2024-03-23T02:59:30;6.20;99.90
6964;DHT22;3522;50.856;7.278;2024-03-23T03:01:56;6.10;99.90
6964;DHT22;3522;50.856;7.278;2024-03-23T03:04:22;6.00;99.90
6964;DHT22;3522;50.856;7.278;2024-03-23T03:06:48;6.00;99.90
6964;DHT22;3522;50.856;7.278;2024-03-23T03:09:14;5.90;99.90
6964;DHT22;3522;50.856;7.278;2024-03-23T03:11:41;5.90;99.90
6964;DHT22;3522;50.856;7.278;2024-03-23T03:14:08;5.90;99.90
6964;DHT22;3522;50.856;7.278;2024-03-23T03:16:34;5.90;99.90
6964;DHT22;3522;50.856;7.278;2024-03-23T03:19:00;5.80;99.90
6964;DHT22;3522;50.856;7.278;2024-03-23T03:21:27;5.70;99.90
6964;DHT22;3522;50.856;7.278;2024-03-23T03:23:53;5.60;99.90
6964;DHT22;3522;50.856;7.278;2024-03-23T03:26:21;5.50;99.90
6964;DHT22;3522;50.856;7.278;2024-03-23T03:28:47;5.50;99.90
6964;DHT22;3522;50.856;7.278;2024-03-23T03:31:15;5.40;99.90
6964;DHT22;3522;50.856;7.278;2024-03-23T03:33:41;5.30;99.90
6964;DHT22;3522;50.856;7.278;2024-03-23T03:36:08;5.30;99.90
6964;DHT22;3522;50.856;7.278;2024-03-23T03:38:34;5.20;99.90
6964;DHT22;3522;50.856;7.278;2024-03-23T03:41:01;5.10;99.90
6964;DHT22;3522;50.856;7.278;2024-03-23T03:43:26;5.10;99.90
6964;DHT22;3522;50.856;7.278;2024-03-23T03:45:53;5.10;99.90
6964;DHT22;3522;50.856;7.278;2024-03-23T03:48:20;5.10;99.90
6964;DHT22;3522;50.856;7.278;2024-03-23T03:50:47;4.90;99.90
6964;DHT22;3522;50.856;7.278;2024-03-23T03:53:12;5.00;99.90
6964;DHT22;3522;50.856;7.278;2024-03-23T03:55:39;4.90;99.90
6964;DHT22;3522;50.856;7.278;2024-03-23T03:58:05;4.90;99.90
6964;DHT22;3522;50.856;7.278;2024-03-23T04:00:32;4.90;99.90
6964;DHT22;3522;50.856;7.278;2024-03-23T04:02:57;4.90;99.90
6964;DHT22;3522;50.856;7.278;2024-03-23T04:05:25;4.80;99.90
6964;DHT22;3522;50.856;7.278;2024-03-23T04:07:51;4.80;99.90
6964;DHT22;3522;50.856;7.278;2024-03-23T04:10:17;4.80;99.90
6964;DHT22;3522;50.856;7.278;2024-03-23T04:12:43;4.80;99.90
6964;DHT22;3522;50.856;7.278;2024-03-23T04:15:10;4.70;99.90
6964;DHT22;3522;50.856;7.278;2024-03-23T04:17:36;4.70;99.90
6964;DHT22;3522;50.856;7.278;2024-03-23T04:20:03;4.70;99.90
6964;DHT22;3522;50.856;7.278;2024-03-23T04:22:30;4.80;99.90
6964;DHT22;3522;50.856;7.278;2024-03-23T04:24:57;4.80;99.90
6964;DHT22;3522;50.856;7.278;2024-03-23T04:27:22;4.80;99.90
6964;DHT22;3522;50.856;7.278;2024-03-23T04:29:49;4.70;99.90
6964;DHT22;3522;50.856;7.278;2024-03-23T04:32:15;4.80;99.90
6964;DHT22;3522;50.856;7.278;2024-03-23T04:34:42;4.80;99.90
6964;DHT22;3522;50.856;7.278;2024-03-23T04:37:08;4.80;99.90
6964;DHT22;3522;50.856;7.278;2024-03-23T04:39:36;4.80;99.90
6964;DHT22;3522;50.856;7.278;2024-03-23T04:42:04;4.90;99.90
6964;DHT22;3522;50.856;7.278;2024-03-23T04:44:30;4.90;99.90
6964;DHT22;3522;50.856;7.278;2024-03-23T04:46:57;4.90;99.90
6964;DHT22;3522;50.856;7.278;2024-03-23T04:49:23;4.90;99.90
6964;DHT22;3522;50.856;7.278;2024-03-23T04:51:49;4.80;99.90
6964;DHT22;3522;50.856;7.278;2024-03-23T04:54:16;4.80;99.90
6964;DHT22;3522;50.856;7.278;2024-03-23T04:56:45;4.80;99.90
6964;DHT22;3522;50.856;7.278;2024-03-23T04:59:12;4.80;99.90
6964;DHT22;3522;50.856;7.278;2024-03-23T05:01:37;4.80;99.90
6964;DHT22;3522;50.856;7.278;2024-03-23T05:04:07;4.90;99.90
6964;DHT22;3522;50.856;7.278;2024-03-23T05:06:32;4.90;99.90
6964;DHT22;3522;50.856;7.278;2024-03-23T05:08:59;5.00;99.90
6964;DHT22;3522;50.856;7.278;2024-03-23T05:11:25;5.00;99.90
6964;DHT22;3522;50.856;7.278;2024-03-23T05:13:53;5.00;99.90
6964;DHT22;3522;50.856;7.278;2024-03-23T05:16:18;5.10;99.90
6964;DHT22;3522;50.856;7.278;2024-03-23T05:18:45;5.10;99.90
6964;DHT22;3522;50.856;7.278;2024-03-23T05:21:11;5.10;99.90
6964;DHT22;3522;50.856;7.278;2024-03-23T05:23:37;5.10;99.90
6964;DHT22;3522;50.856;7.278;2024-03-23T05:26:03;5.10;99.90
6964;DHT22;3522;50.856;7.278;2024-03-23T05:28:30;5.10;99.90
6964;DHT22;3522;50.856;7.278;2024-03-23T05:30:57;5.10;99.90
6964;DHT22;3522;50.856;7.278;2024-03-23T05:33:23;5.10;99.90
6964;DHT22;3522;50.856;7.278;2024-03-23T05:35:56;5.10;99.90
6964;DHT22;3522;50.856;7.278;2024-03-23T05:38:22;5.10;99.90
6964;DHT22;3522;50.856;7.278;2024-03-23T05:40:52;5.10;99.90
6964;DHT22;3522;50.856;7.278;2024-03-23T05:43:19;5.20;99.90
6964;DHT22;3522;50.856;7.278;2024-03-23T05:45:45;5.20;99.90
6964;DHT22;3522;50.856;7.278;2024-03-23T05:48:13;5.20;99.90
6964;DHT22;3522;50.856;7.278;2024-03-23T05:50:38;5.20;99.90
6964;DHT22;3522;50.856;7.278;2024-03-23T05:53:05;5.20;99.90
6964;DHT22;3522;50.856;7.278;2024-03-23T05:55:31;5.20;99.90
6964;DHT22;3522;50.856;7.278;2024-03-23T05:57:57;5.20;99.90
6964;DHT22;3522;50.856;7.278;2024-03-23T06:00:25;5.20;99.90
6964;DHT22;3522;50.856;7.278;2024-03-23T06:02:51;5.20;99.90
6964;DHT22;3522;50.856;7.278;2024-03-23T06:05:18;5.20;99.90
6964;DHT22;3522;50.856;7.278;2024-03-23T06:07:45;5.20;99.90
6964;DHT22;3522;50.856;7.278;2024-03-23T06:10:11;5.20;99.90
6964;DHT22;3522;50.856;7.278;2024-03-23T06:12:37;5.20;99.90
6964;DHT22;3522;50.856;7.278;2024-03-23T06:15:03;5.30;99.90
6964;DHT22;3522;50.856;7.278;2024-03-23T06:17:30;5.30;99.90
6964;DHT22;3522;50.856;7.278;2024-03-23T06:19:56;5.30;99.90
6964;DHT22;3522;50.856;7.278;2024-03-23T06:22:24;5.40;99.90
6964;DHT22;3522;50.856;7.278;2024-03-23T06:24:49;5.40;99.90
6964;DHT22;3522;50.856;7.278;2024-03-23T06:27:16;5.40;99.90
6964;DHT22;3522;50.856;7.278;2024-03-23T06:29:41;5.40;99.90
6964;DHT22;3522;50.856;7.278;2024-03-23T06:32:08;5.40;99.90
6964;DHT22;3522;50.856;7.278;2024-03-23T06:34:35;5.40;99.90
6964;DHT22;3522;50.856;7.278;2024-03-23T06:37:00;5.40;99.90
6964;DHT22;3522;50.856;7.278;2024-03-23T06:39:29;5.40;99.90
6964;DHT22;3522;50.856;7.278;2024-03-23T06:41:55;5.40;99.90
6964;DHT22;3522;50.856;7.278;2024-03-23T06:44:22;5.40;99.90
6964;DHT22;3522;50.856;7.278;2024-03-23T06:46:47;5.40;99.90
6964;DHT22;3522;50.856;7.278;2024-03-23T06:49:15;5.30;99.90
6964;DHT22;3522;50.856;7.278;2024-03-23T06:51:40;5.40;99.90
6964;DHT22;3522;50.856;7.278;2024-03-23T06:54:07;5.40;99.90
6964;DHT22;3522;50.856;7.278;2024-03-23T06:56:34;5.50;99.90
6964;DHT22;3522;50.856;7.278;2024-03-23T06:59:01;5.50;99.90
6964;DHT22;3522;50.856;7.278;2024-03-23T07:01:27;5.60;99.90
6964;DHT22;3522;50.856;7.278;2024-03-23T07:03:54;5.70;99.90
6964;DHT22;3522;50.856;7.278;2024-03-23T07:06:20;5.80;99.90
6964;DHT22;3522;50.856;7.278;2024-03-23T07:08:46;5.80;99.90
6964;DHT22;3522;50.856;7.278;2024-03-23T07:11:12;5.80;99.90
6964;DHT22;3522;50.856;7.278;2024-03-23T07:13:46;5.80;99.90
6964;DHT22;3522;50.856;7.278;2024-03-23T07:16:12;5.90;99.90
6964;DHT22;3522;50.856;7.278;2024-03-23T07:18:39;6.10;99.90
6964;DHT22;3522;50.856;7.278;2024-03-23T07:21:05;6.30;99.90
6964;DHT22;3522;50.856;7.278;2024-03-23T07:23:32;6.50;99.90
6964;DHT22;3522;50.856;7.278;2024-03-23T07:25:58;6.70;99.90
6964;DHT22;3522;50.856;7.278;2024-03-23T07:28:24;6.70;99.90
6964;DHT22;3522;50.856;7.278;2024-03-23T07:31:02;6.70;99.90
6964;DHT22;3522;50.856;7.278;2024-03-23T07:33:28;6.70;99.90
6964;DHT22;3522;50.856;7.278;2024-03-23T07:35:54;6.60;99.90
6964;DHT22;3522;50.856;7.278;2024-03-23T07:38:20;6.60;99.90
6964;DHT22;3522;50.856;7.278;2024-03-23T07:40:46;6.60;99.90
6964;DHT22;3522;50.856;7.278;2024-03-23T07:43:15;6.60;99.90
6964;DHT22;3522;50.856;7.278;2024-03-23T07:45:40;6.80;99.90
6964;DHT22;3522;50.856;7.278;2024-03-23T07:48:08;6.90;99.90
6964;DHT22;3522;50.856;7.278;2024-03-23T07:50:34;7.00;99.90
6964;DHT22;3522;50.856;7.278;2024-03-23T07:53:01;7.10;99.90
6964;DHT22;3522;50.856;7.278;2024-03-23T07:55:27;7.30;99.90
6964;DHT22;3522;50.856;7.278;2024-03-23T07:57:53;7.30;99.90
6964;DHT22;3522;50.856;7.278;2024-03-23T08:00:19;7.40;99.90
6964;DHT22;3522;50.856;7.278;2024-03-23T08:02:46;7.50;99.90
6964;DHT22;3522;50.856;7.278;2024-03-23T08:05:12;7.50;99.90
6964;DHT22;3522;50.856;7.278;2024-03-23T08:07:39;7.40;99.90
6964;DHT22;3522;50.856;7.278;2024-03-23T08:10:05;7.50;99.90
6964;DHT22;3522;50.856;7.278;2024-03-23T08:12:32;7.80;99.90
6964;DHT22;3522;50.856;7.278;2024-03-23T08:14:57;7.80;99.90
6964;DHT22;3522;50.856;7.278;2024-03-23T08:17:24;7.80;99.90
6964;DHT22;3522;50.856;7.278;2024-03-23T08:19:49;7.70;99.90
6964;DHT22;3522;50.856;7.278;2024-03-23T08:22:19;7.60;99.90
6964;DHT22;3522;50.856;7.278;2024-03-23T08:24:45;7.50;99.90
6964;DHT22;3522;50.856;7.278;2024-03-23T08:27:11;7.40;99.90
6964;DHT22;3522;50.856;7.278;2024-03-23T08:29:37;7.40;99.90
6964;DHT22;3522;50.856;7.278;2024-03-23T08:32:04;7.40;99.90
6964;DHT22;3522;50.856;7.278;2024-03-23T08:34:29;7.50;99.90
6964;DHT22;3522;50.856;7.278;2024-03-23T08:36:56;7.60;99.90
6964;DHT22;3522;50.856;7.278;2024-03-23T08:39:23;7.80;99.90
6964;DHT22;3522;50.856;7.278;2024-03-23T08:41:50;8.00;99.90
6964;DHT22;3522;50.856;7.278;2024-03-23T08:44:16;8.20;99.90
6964;DHT22;3522;50.856;7.278;2024-03-23T08:46:42;8.40;99.90
6964;DHT22;3522;50.856;7.278;2024-03-23T08:49:08;8.70;99.90
6964;DHT22;3522;50.856;7.278;2024-03-23T08:51:34;9.00;99.90
6964;DHT22;3522;50.856;7.278;2024-03-23T08:54:00;9.10;99.90
6964;DHT22;3522;50.856;7.278;2024-03-23T08:56:28;9.10;99.90
6964;DHT22;3522;50.856;7.278;2024-03-23T08:58:53;9.00;99.90
6964;DHT22;3522;50.856;7.278;2024-03-23T09:01:20;8.90;99.90
6964;DHT22;3522;50.856;7.278;2024-03-23T09:03:46;9.00;99.90
6964;DHT22;3522;50.856;7.278;2024-03-23T09:06:13;9.30;99.90
6964;DHT22;3522;50.856;7.278;2024-03-23T09:08:39;9.60;99.90
6964;DHT22;3522;50.856;7.278;2024-03-23T09:11:06;9.60;99.90
6964;DHT22;3522;50.856;7.278;2024-03-23T09:13:33;9.60;99.90
6964;DHT22;3522;50.856;7.278;2024-03-23T09:16:00;9.60;99.90
6964;DHT22;3522;50.856;7.278;2024-03-23T09:18:26;9.50;99.90
6964;DHT22;3522;50.856;7.278;2024-03-23T09:20:53;9.40;99.90
6964;DHT22;3522;50.856;7.278;2024-03-23T09:23:19;9.50;99.90
6964;DHT22;3522;50.856;7.278;2024-03-23T09:25:46;9.70;99.90
6964;DHT22;3522;50.856;7.278;2024-03-23T09:28:12;9.80;99.90
6964;DHT22;3522;50.856;7.278;2024-03-23T09:30:39;9.90;99.90
6964;DHT22;3522;50.856;7.278;2024-03-23T09:33:07;10.20;99.90
6964;DHT22;3522;50.856;7.278;2024-03-23T09:35:36;10.10;99.90
6964;DHT22;3522;50.856;7.278;2024-03-23T09:38:01;10.10;99.90
6964;DHT22;3522;50.856;7.278;2024-03-23T09:40:28;10.10;99.90
6964;DHT22;3522;50.856;7.278;2024-03-23T09:42:54;9.80;99.90
6964;DHT22;3522;50.856;7.278;2024-03-23T09:45:21;9.40;99.90
6964;DHT22;3522;50.856;7.278;2024-03-23T09:47:48;8.90;99.90
6964;DHT22;3522;50.856;7.278;2024-03-23T09:50:16;8.80;99.90
6964;DHT22;3522;50.856;7.278;2024-03-23T09:52:42;8.70;99.90
6964;DHT22;3522;50.856;7.278;2024-03-23T09:55:09;8.70;99.90
6964;DHT22;3522;50.856;7.278;2024-03-23T09:57:35;8.80;99.90
6964;DHT22;3522;50.856;7.278;2024-03-23T10:00:01;8.80;99.90
6964;DHT22;3522;50.856;7.278;2024-03-23T10:02:27;8.70;99.90
6964;DHT22;3522;50.856;7.278;2024-03-23T10:04:56;8.40;99.90
6964;DHT22;3522;50.856;7.278;2024-03-23T10:07:23;8.00;99.90
6964;DHT22;3522;50.856;7.278;2024-03-23T10:09:50;7.70;99.90
6964;DHT22;3522;50.856;7.278;2024-03-23T10:12:16;7.70;99.90
6964;DHT22;3522;50.856;7.278;2024-03-23T10:14:43;7.70;99.90
6964;DHT22;3522;50.856;7.278;2024-03-23T10:17:13;7.60;99.90
6964;DHT22;3522;50.856;7.278;2024-03-23T10:19:44;7.60;99.90
6964;DHT22;3522;50.856;7.278;2024-03-23T10:22:13;7.90;99.90
6964;DHT22;3522;50.856;7.278;2024-03-23T10:24:40;8.50;99.90
6964;DHT22;3522;50.856;7.278;2024-03-23T10:27:06;8.80;99.90
6964;DHT22;3522;50.856;7.278;2024-03-23T10:29:32;9.10;99.90
6964;DHT22;3522;50.856;7.278;2024-03-23T10:32:08;9.40;99.90
6964;DHT22;3522;50.856;7.278;2024-03-23T10:34:35;9.50;99.90
6964;DHT22;3522;50.856;7.278;2024-03-23T10:37:01;9.60;99.90
6964;DHT22;3522;50.856;7.278;2024-03-23T10:39:30;9.70;99.90
6964;DHT22;3522;50.856;7.278;2024-03-23T10:41:57;9.60;99.90
6964;DHT22;3522;50.856;7.278;2024-03-23T10:44:24;9.30;99.90
6964;DHT22;3522;50.856;7.278;2024-03-23T10:46:52;9.00;99.90
6964;DHT22;3522;50.856;7.278;2024-03-23T10:49:24;8.70;99.90
6964;DHT22;3522;50.856;7.278;2024-03-23T10:51:51;8.60;99.90
6964;DHT22;3522;50.856;7.278;2024-03-23T10:54:18;8.50;99.90
6964;DHT22;3522;50.856;7.278;2024-03-23T10:56:45;8.20;99.90
6964;DHT22;3522;50.856;7.278;2024-03-23T10:59:12;7.00;99.90
6964;DHT22;3522;50.856;7.278;2024-03-23T11:01:53;5.80;99.90
6964;DHT22;3522;50.856;7.278;2024-03-23T11:04:29;5.20;99.90
6964;DHT22;3522;50.856;7.278;2024-03-23T11:06:54;4.90;99.90
6964;DHT22;3522;50.856;7.278;2024-03-23T11:09:40;5.10;99.90
6964;DHT22;3522;50.856;7.278;2024-03-23T11:12:18;5.60;99.90
6964;DHT22;3522;50.856;7.278;2024-03-23T11:14:51;6.20;99.90
6964;DHT22;3522;50.856;7.278;2024-03-23T11:17:17;6.60;99.90
6964;DHT22;3522;50.856;7.278;2024-03-23T11:19:44;6.90;99.90
6964;DHT22;3522;50.856;7.278;2024-03-23T11:22:10;7.10;99.90
6964;DHT22;3522;50.856;7.278;2024-03-23T11:24:36;7.40;99.90
6964;DHT22;3522;50.856;7.278;2024-03-23T11:27:03;7.90;99.90
6964;DHT22;3522;50.856;7.278;2024-03-23T11:29:42;8.30;99.90
6964;DHT22;3522;50.856;7.278;2024-03-23T11:32:08;8.90;99.90
6964;DHT22;3522;50.856;7.278;2024-03-23T11:34:38;9.10;99.90
6964;DHT22;3522;50.856;7.278;2024-03-23T11:37:04;9.50;99.90
6964;DHT22;3522;50.856;7.278;2024-03-23T11:39:31;9.90;99.90
6964;DHT22;3522;50.856;7.278;2024-03-23T11:41:57;9.90;99.90
6964;DHT22;3522;50.856;7.278;2024-03-23T11:44:24;10.00;99.90
6964;DHT22;3522;50.856;7.278;2024-03-23T11:46:52;10.00;99.90
6964;DHT22;3522;50.856;7.278;2024-03-23T11:49:22;9.90;99.90
6964;DHT22;3522;50.856;7.278;2024-03-23T11:51:47;9.70;99.90
6964;DHT22;3522;50.856;7.278;2024-03-23T11:54:14;9.50;99.90
6964;DHT22;3522;50.856;7.278;2024-03-23T11:56:40;9.20;99.90
6964;DHT22;3522;50.856;7.278;2024-03-23T11:59:07;9.00;99.90
6964;DHT22;3522;50.856;7.278;2024-03-23T12:01:33;8.80;99.90
6964;DHT22;3522;50.856;7.278;2024-03-23T12:04:01;8.60;99.90
6964;DHT22;3522;50.856;7.278;2024-03-23T12:06:26;8.40;99.90
6964;DHT22;3522;50.856;7.278;2024-03-23T12:08:53;7.70;99.90
6964;DHT22;3522;50.856;7.278;2024-03-23T12:11:18;7.20;99.90
6964;DHT22;3522;50.856;7.278;2024-03-23T12:13:47;7.00;99.90
6964;DHT22;3522;50.856;7.278;2024-03-23T12:16:16;7.10;99.90
6964;DHT22;3522;50.856;7.278;2024-03-23T12:18:43;7.00;99.90
6964;DHT22;3522;50.856;7.278;2024-03-23T12:21:10;6.80;99.90
6964;DHT22;3522;50.856;7.278;2024-03-23T12:23:38;6.80;99.90
6964;DHT22;3522;50.856;7.278;2024-03-23T12:26:04;6.70;99.90
6964;DHT22;3522;50.856;7.278;2024-03-23T12:28:31;6.70;99.90
6964;DHT22;3522;50.856;7.278;2024-03-23T12:30:57;6.60;99.90
6964;DHT22;3522;50.856;7.278;2024-03-23T12:33:23;6.40;99.90
6964;DHT22;3522;50.856;7.278;2024-03-23T12:35:49;5.90;99.90
6964;DHT22;3522;50.856;7.278;2024-03-23T12:38:17;5.60;99.90
6964;DHT22;3522;50.856;7.278;2024-03-23T12:40:45;5.50;99.90
6964;DHT22;3522;50.856;7.278;2024-03-23T12:43:12;5.70;99.90
6964;DHT22;3522;50.856;7.278;2024-03-23T12:45:38;5.90;99.90
6964;DHT22;3522;50.856;7.278;2024-03-23T12:48:05;5.90;99.90
6964;DHT22;3522;50.856;7.278;2024-03-23T12:50:31;5.90;99.90
6964;DHT22;3522;50.856;7.278;2024-03-23T12:52:57;5.80;99.90
6964;DHT22;3522;50.856;7.278;2024-03-23T12:55:29;5.70;99.90
6964;DHT22;3522;50.856;7.278;2024-03-23T12:57:58;5.40;99.90
6964;DHT22;3522;50.856;7.278;2024-03-23T13:00:25;5.30;99.90
6964;DHT22;3522;50.856;7.278;2024-03-23T13:02:52;5.40;99.90
6964;DHT22;3522;50.856;7.278;2024-03-23T13:05:18;5.50;99.90
6964;DHT22;3522;50.856;7.278;2024-03-23T13:07:50;5.80;99.90
6964;DHT22;3522;50.856;7.278;2024-03-23T13:10:16;6.20;99.90
6964;DHT22;3522;50.856;7.278;2024-03-23T13:12:44;6.40;99.90
6964;DHT22;3522;50.856;7.278;2024-03-23T13:15:10;6.70;99.90
6964;DHT22;3522;50.856;7.278;2024-03-23T13:17:36;6.80;99.90
6964;DHT22;3522;50.856;7.278;2024-03-23T13:20:02;6.90;99.90
6964;DHT22;3522;50.856;7.278;2024-03-23T13:22:31;7.10;99.90
6964;DHT22;3522;50.856;7.278;2024-03-23T13:24:56;7.30;99.90
6964;DHT22;3522;50.856;7.278;2024-03-23T13:27:25;7.60;99.90
6964;DHT22;3522;50.856;7.278;2024-03-23T13:29:52;7.90;99.90
6964;DHT22;3522;50.856;7.278;2024-03-23T13:32:18;7.80;99.90
6964;DHT22;3522;50.856;7.278;2024-03-23T13:34:44;7.50;99.90
6964;DHT22;3522;50.856;7.278;2024-03-23T13:37:10;7.30;99.90
6964;DHT22;3522;50.856;7.278;2024-03-23T13:39:36;7.50;99.90
6964;DHT22;3522;50.856;7.278;2024-03-23T13:42:03;7.90;99.90
6964;DHT22;3522;50.856;7.278;2024-03-23T13:44:30;8.20;99.90
6964;DHT22;3522;50.856;7.278;2024-03-23T13:46:57;8.30;99.90
6964;DHT22;3522;50.856;7.278;2024-03-23T13:49:25;8.40;99.90
6964;DHT22;3522;50.856;7.278;2024-03-23T13:51:50;8.40;99.90
6964;DHT22;3522;50.856;7.278;2024-03-23T13:54:17;8.30;99.90
6964;DHT22;3522;50.856;7.278;2024-03-23T13:56:44;8.10;99.90
6964;DHT22;3522;50.856;7.278;2024-03-23T13:59:11;8.00;99.90
6964;DHT22;3522;50.856;7.278;2024-03-23T14:01:37;8.00;99.90
6964;DHT22;3522;50.856;7.278;2024-03-23T14:04:05;7.90;99.90
6964;DHT22;3522;50.856;7.278;2024-03-23T14:06:30;8.00;99.90
6964;DHT22;3522;50.856;7.278;2024-03-23T14:08:57;8.00;99.90
6964;DHT22;3522;50.856;7.278;2024-03-23T14:11:23;8.00;99.90
6964;DHT22;3522;50.856;7.278;2024-03-23T14:13:51;8.20;99.90
6964;DHT22;3522;50.856;7.278;2024-03-23T14:16:19;8.20;99.90
6964;DHT22;3522;50.856;7.278;2024-03-23T14:18:46;8.20;99.90
6964;DHT22;3522;50.856;7.278;2024-03-23T14:21:13;8.20;99.90
6964;DHT22;3522;50.856;7.278;2024-03-23T14:23:40;8.00;99.90
6964;DHT22;3522;50.856;7.278;2024-03-23T14:26:06;7.70;99.90
6964;DHT22;3522;50.856;7.278;2024-03-23T14:28:33;7.30;99.90
6964;DHT22;3522;50.856;7.278;2024-03-23T14:30:59;7.00;99.90
6964;DHT22;3522;50.856;7.278;2024-03-23T14:33:26;6.90;99.90
6964;DHT22;3522;50.856;7.278;2024-03-23T14:35:52;6.80;99.90
6964;DHT22;3522;50.856;7.278;2024-03-23T14:38:20;6.60;99.90
6964;DHT22;3522;50.856;7.278;2024-03-23T14:40:46;6.10;99.90
6964;DHT22;3522;50.856;7.278;2024-03-23T14:43:13;5.70;99.90
6964;DHT22;3522;50.856;7.278;2024-03-23T14:45:45;5.60;99.90
6964;DHT22;3522;50.856;7.278;2024-03-23T14:48:15;5.60;99.90
6964;DHT22;3522;50.856;7.278;2024-03-23T14:50:40;5.50;99.90
6964;DHT22;3522;50.856;7.278;2024-03-23T14:53:07;5.60;99.90
6964;DHT22;3522;50.856;7.278;2024-03-23T14:55:35;5.60;99.90
6964;DHT22;3522;50.856;7.278;2024-03-23T14:58:02;5.70;99.90
6964;DHT22;3522;50.856;7.278;2024-03-23T15:00:27;5.80;99.90
6964;DHT22;3522;50.856;7.278;2024-03-23T15:02:54;5.90;99.90
6964;DHT22;3522;50.856;7.278;2024-03-23T15:05:20;5.80;99.90
6964;DHT22;3522;50.856;7.278;2024-03-23T15:07:46;5.90;99.90
6964;DHT22;3522;50.856;7.278;2024-03-23T15:10:12;6.00;99.90
6964;DHT22;3522;50.856;7.278;2024-03-23T15:12:40;6.00;99.90
6964;DHT22;3522;50.856;7.278;2024-03-23T15:15:06;6.20;99.90
6964;DHT22;3522;50.856;7.278;2024-03-23T15:17:33;6.30;99.90
6964;DHT22;3522;50.856;7.278;2024-03-23T15:20:02;6.40;99.90
6964;DHT22;3522;50.856;7.278;2024-03-23T15:22:31;6.50;99.90
6964;DHT22;3522;50.856;7.278;2024-03-23T15:24:57;6.40;99.90
6964;DHT22;3522;50.856;7.278;2024-03-23T15:27:23;5.80;99.90
6964;DHT22;3522;50.856;7.278;2024-03-23T15:29:50;4.80;99.90
6964;DHT22;3522;50.856;7.278;2024-03-23T15:32:17;4.20;99.90
6964;DHT22;3522;50.856;7.278;2024-03-23T15:34:43;3.90;99.90
6964;DHT22;3522;50.856;7.278;2024-03-23T15:37:10;3.70;99.90
6964;DHT22;3522;50.856;7.278;2024-03-23T15:39:35;3.70;99.90
6964;DHT22;3522;50.856;7.278;2024-03-23T15:42:02;3.70;99.90
6964;DHT22;3522;50.856;7.278;2024-03-23T15:44:29;3.70;99.90
6964;DHT22;3522;50.856;7.278;2024-03-23T15:46:57;3.70;99.90
6964;DHT22;3522;50.856;7.278;2024-03-23T15:49:23;3.90;99.90
6964;DHT22;3522;50.856;7.278;2024-03-23T15:51:49;4.10;99.90
6964;DHT22;3522;50.856;7.278;2024-03-23T15:54:15;4.40;99.90
6964;DHT22;3522;50.856;7.278;2024-03-23T15:56:42;4.60;99.90
6964;DHT22;3522;50.856;7.278;2024-03-23T15:59:08;4.80;99.90
6964;DHT22;3522;50.856;7.278;2024-03-23T16:01:34;4.80;99.90
6964;DHT22;3522;50.856;7.278;2024-03-23T16:04:01;4.90;99.90
6964;DHT22;3522;50.856;7.278;2024-03-23T16:06:28;4.90;99.90
6964;DHT22;3522;50.856;7.278;2024-03-23T16:08:53;5.10;99.90
6964;DHT22;3522;50.856;7.278;2024-03-23T16:11:20;5.20;99.90
6964;DHT22;3522;50.856;7.278;2024-03-23T16:13:46;5.30;99.90
6964;DHT22;3522;50.856;7.278;2024-03-23T16:16:12;5.30;99.90
6964;DHT22;3522;50.856;7.278;2024-03-23T16:18:39;5.30;99.90
6964;DHT22;3522;50.856;7.278;2024-03-23T16:21:07;5.30;99.90
6964;DHT22;3522;50.856;7.278;2024-03-23T16:23:33;5.30;99.90
6964;DHT22;3522;50.856;7.278;2024-03-23T16:26:00;5.30;99.90
6964;DHT22;3522;50.856;7.278;2024-03-23T16:28:26;5.30;99.90
6964;DHT22;3522;50.856;7.278;2024-03-23T16:30:54;5.40;99.90
6964;DHT22;3522;50.856;7.278;2024-03-23T16:33:20;5.30;99.90
6964;DHT22;3522;50.856;7.278;2024-03-23T16:35:54;5.20;99.90
6964;DHT22;3522;50.856;7.278;2024-03-23T16:38:21;5.20;99.90
6964;DHT22;3522;50.856;7.278;2024-03-23T16:40:52;5.10;99.90
6964;DHT22;3522;50.856;7.278;2024-03-23T16:43:19;5.10;99.90
6964;DHT22;3522;50.856;7.278;2024-03-23T16:45:50;5.00;99.90
6964;DHT22;3522;50.856;7.278;2024-03-23T16:48:16;5.00;99.90
6964;DHT22;3522;50.856;7.278;2024-03-23T16:50:43;4.90;99.90
6964;DHT22;3522;50.856;7.278;2024-03-23T16:53:08;4.90;99.90
6964;DHT22;3522;50.856;7.278;2024-03-23T16:55:36;4.90;99.90
6964;DHT22;3522;50.856;7.278;2024-03-23T16:58:02;4.90;99.90
6964;DHT22;3522;50.856;7.278;2024-03-23T17:02:58;4.90;99.90
6964;DHT22;3522;50.856;7.278;2024-03-23T17:05:24;4.80;99.90
6964;DHT22;3522;50.856;7.278;2024-03-23T17:07:50;4.80;99.90
6964;DHT22;3522;50.856;7.278;2024-03-23T17:10:17;4.80;99.90
6964;DHT22;3522;50.856;7.278;2024-03-23T17:12:44;4.80;99.90